Time;durP1;ratioP1;P1;durP2;ratioP2;P2;SDS_P1;SDS_P2;PMS_P1;PMS_P2;Temp;Humidity;BMP_temperature;BMP_pressure;BME280_temperature;BME280_humidity;BME280_pressure;Samples;Min_cycle;Max_cycle;Signal;HPM_P1;HPM_P2
2021/11/05 00:00:25;;;;;;;32.67;16.35;;;4.30;99.90;;;;;;5020234;28;20040;-85
2021/11/05 00:02:54;;;;;;;33.30;16.35;;;4.30;99.90;;;;;;5034175;28;20025;-85
2021/11/05 00:05:31;;;;;;;26.80;15.85;;;4.30;99.90;;;;;;5017482;28;20041;-85
2021/11/05 00:07:57;;;;;;;31.27;16.42;;;4.30;99.90;;;;;;5030232;28;20074;-85
2021/11/05 00:10:23;;;;;;;27.23;15.73;;;4.30;99.90;;;;;;5028770;28;20030;-85
2021/11/05 00:12:49;;;;;;;29.27;15.93;;;4.30;99.90;;;;;;5016789;28;20124;-85
2021/11/05 00:15:15;;;;;;;27.92;16.55;;;4.30;99.90;;;;;;5034525;28;20033;-83
2021/11/05 00:17:41;;;;;;;27.63;17.27;;;4.30;99.90;;;;;;5019151;28;20021;-84
2021/11/05 00:20:08;;;;;;;29.95;16.45;;;4.30;99.90;;;;;;5034682;28;20037;-85
2021/11/05 00:22:34;;;;;;;26.10;15.55;;;4.30;99.90;;;;;;5007979;28;20489;-85
2021/11/05 00:25:01;;;;;;;30.75;16.60;;;4.30;99.90;;;;;;5016845;28;20124;-85
2021/11/05 00:27:26;;;;;;;29.40;15.50;;;4.30;99.90;;;;;;5018909;28;20071;-84
2021/11/05 00:29:52;;;;;;;28.75;15.50;;;4.20;99.90;;;;;;5017204;28;20021;-84
2021/11/05 00:32:17;;;;;;;28.33;15.25;;;4.20;99.90;;;;;;5022292;28;20026;-85
2021/11/05 00:34:43;;;;;;;23.88;14.50;;;4.10;99.90;;;;;;5015855;28;20037;-85
2021/11/05 00:37:08;;;;;;;25.95;15.80;;;4.10;99.90;;;;;;5016128;28;20032;-85
2021/11/05 00:39:34;;;;;;;24.40;14.52;;;4.10;99.90;;;;;;5015728;28;20033;-85
2021/11/05 00:42:00;;;;;;;26.98;14.13;;;4.10;99.90;;;;;;5032207;28;20036;-85
2021/11/05 00:44:26;;;;;;;24.70;14.48;;;4.10;99.90;;;;;;5016502;28;20029;-85
2021/11/05 00:46:51;;;;;;;26.92;14.90;;;4.10;99.90;;;;;;5019434;28;20408;-85
2021/11/05 00:49:17;;;;;;;28.13;15.48;;;4.10;99.90;;;;;;5031994;28;20031;-85
2021/11/05 00:51:42;;;;;;;29.40;15.45;;;4.10;99.90;;;;;;5020785;28;20112;-84
2021/11/05 00:54:08;;;;;;;26.02;14.65;;;4.10;99.90;;;;;;5016645;28;20537;-84
2021/11/05 00:56:35;;;;;;;30.70;15.07;;;4.10;99.90;;;;;;5014616;28;20112;-84
2021/11/05 00:59:01;;;;;;;28.90;14.80;;;4.10;99.90;;;;;;5049622;28;20086;-84
2021/11/05 01:01:26;;;;;;;30.88;14.88;;;4.10;99.90;;;;;;5033473;28;20029;-84
2021/11/05 01:03:52;;;;;;;30.77;16.23;;;4.10;99.90;;;;;;5032757;28;20040;-85
2021/11/05 01:06:20;;;;;;;29.02;15.65;;;4.10;99.90;;;;;;5015784;28;20477;-84
2021/11/05 01:08:45;;;;;;;27.33;15.30;;;4.10;99.90;;;;;;5026626;28;20052;-84
2021/11/05 01:11:11;;;;;;;36.05;16.15;;;4.10;99.90;;;;;;5041055;28;20063;-85
2021/11/05 01:13:37;;;;;;;35.85;16.67;;;4.10;99.90;;;;;;5016909;28;20076;-84
2021/11/05 01:16:03;;;;;;;32.40;15.65;;;4.00;99.90;;;;;;5015690;28;20024;-84
2021/11/05 01:18:28;;;;;;;36.10;16.98;;;4.10;99.90;;;;;;5018325;28;20029;-84
2021/11/05 01:20:54;;;;;;;28.17;15.73;;;4.10;99.90;;;;;;5022425;28;20029;-84
2021/11/05 01:23:21;;;;;;;30.83;16.30;;;4.10;99.90;;;;;;5017073;28;20393;-84
2021/11/05 01:25:48;;;;;;;36.33;16.30;;;4.10;99.90;;;;;;5015236;28;20071;-84
2021/11/05 01:28:13;;;;;;;32.67;17.00;;;4.10;99.90;;;;;;5025167;28;20033;-84
2021/11/05 01:30:39;;;;;;;31.83;16.10;;;4.00;99.90;;;;;;5018924;28;20028;-85
2021/11/05 01:33:08;;;;;;;36.40;16.65;;;4.00;99.90;;;;;;5028425;28;20052;-84
2021/11/05 01:35:38;;;;;;;32.53;16.25;;;4.00;99.90;;;;;;5015681;28;20025;-84
2021/11/05 01:38:08;;;;;;;30.60;15.65;;;4.00;99.90;;;;;;5015308;28;20040;-84
2021/11/05 01:40:34;;;;;;;36.90;14.88;;;4.00;99.90;;;;;;5011625;28;20482;-84
2021/11/05 01:43:01;;;;;;;35.08;16.00;;;3.90;99.90;;;;;;5016047;28;20112;-84
2021/11/05 01:45:30;;;;;;;24.02;13.00;;;3.90;99.90;;;;;;5014514;28;20485;-84
2021/11/05 01:47:55;;;;;;;36.63;16.20;;;3.90;99.90;;;;;;5014112;28;20079;-84
2021/11/05 01:50:21;;;;;;;27.83;14.60;;;3.90;99.90;;;;;;5033423;28;20029;-83
2021/11/05 01:52:47;;;;;;;20.88;11.57;;;3.90;99.90;;;;;;5022193;28;20063;-84
2021/11/05 01:55:13;;;;;;;17.20;10.23;;;3.80;99.90;;;;;;5033494;28;20045;-84
2021/11/05 01:57:41;;;;;;;30.35;13.90;;;3.80;99.90;;;;;;5016146;28;20029;-84
2021/11/05 02:00:09;;;;;;;25.77;14.00;;;3.70;99.90;;;;;;5013889;28;20389;-84
2021/11/05 02:02:35;;;;;;;29.48;14.25;;;3.70;99.90;;;;;;5032236;28;20017;-84
2021/11/05 02:05:00;;;;;;;29.05;13.80;;;3.70;99.90;;;;;;5015779;28;20041;-84
2021/11/05 02:07:28;;;;;;;27.50;12.63;;;3.70;99.90;;;;;;5018650;28;20081;-84
2021/11/05 02:09:56;;;;;;;26.58;13.85;;;3.70;99.90;;;;;;5029899;28;20038;-84
2021/11/05 02:12:23;;;;;;;31.40;13.48;;;3.70;99.90;;;;;;5015344;28;20045;-84
2021/11/05 02:14:50;;;;;;;26.65;13.10;;;3.60;99.90;;;;;;5028430;28;20029;-84
2021/11/05 02:17:16;;;;;;;25.10;13.27;;;3.60;99.90;;;;;;5021601;28;20029;-84
2021/11/05 02:19:42;;;;;;;18.38;11.70;;;3.70;99.90;;;;;;5001915;28;20033;-84
2021/11/05 02:22:08;;;;;;;28.17;12.20;;;3.60;99.90;;;;;;5021222;28;20034;-84
2021/11/05 02:24:34;;;;;;;24.48;11.25;;;3.60;99.90;;;;;;5051155;28;20099;-84
2021/11/05 02:27:00;;;;;;;29.02;13.10;;;3.60;99.90;;;;;;5019805;28;20478;-84
2021/11/05 02:29:30;;;;;;;24.73;13.68;;;3.60;99.90;;;;;;5020885;28;20026;-84
2021/11/05 02:31:57;;;;;;;23.00;12.55;;;3.60;99.90;;;;;;5014817;28;20034;-84
2021/11/05 02:34:23;;;;;;;26.00;13.38;;;3.60;99.90;;;;;;5029663;28;20030;-85
2021/11/05 02:36:48;;;;;;;30.60;14.57;;;3.60;99.90;;;;;;5031862;28;20048;-84
2021/11/05 02:39:14;;;;;;;22.15;11.95;;;3.70;99.90;;;;;;5016076;28;20074;-84
2021/11/05 02:41:47;;;;;;;27.83;13.50;;;3.70;99.90;;;;;;5042654;28;20029;-85
2021/11/05 02:44:13;;;;;;;27.13;12.85;;;3.70;99.90;;;;;;5027177;28;20025;-84
2021/11/05 02:46:38;;;;;;;33.08;14.55;;;3.70;99.90;;;;;;5017510;28;20439;-84
2021/11/05 02:49:06;;;;;;;26.65;12.90;;;3.70;99.90;;;;;;5045563;28;20036;-84
2021/11/05 02:51:32;;;;;;;28.75;13.50;;;3.70;99.90;;;;;;5023020;28;20033;-84
2021/11/05 02:53:59;;;;;;;29.70;13.93;;;3.70;99.90;;;;;;5025540;28;20502;-84
2021/11/05 02:56:24;;;;;;;25.75;12.52;;;3.70;99.90;;;;;;5013337;28;20044;-83
2021/11/05 02:58:51;;;;;;;28.70;12.77;;;3.70;99.90;;;;;;5025617;28;20112;-84
2021/11/05 03:01:18;;;;;;;29.40;13.75;;;3.70;99.90;;;;;;5016267;28;20125;-83
2021/11/05 03:03:44;;;;;;;25.35;13.52;;;3.70;99.90;;;;;;5023795;28;20029;-84
2021/11/05 03:06:09;;;;;;;34.50;13.10;;;3.70;99.90;;;;;;5018987;28;20026;-84
2021/11/05 03:08:35;;;;;;;28.80;13.32;;;3.70;99.90;;;;;;5018704;28;20083;-84
2021/11/05 03:11:01;;;;;;;32.35;13.82;;;3.80;99.90;;;;;;5016034;28;20033;-84
2021/11/05 03:13:27;;;;;;;37.80;14.25;;;3.80;99.90;;;;;;5018786;28;20071;-84
2021/11/05 03:15:52;;;;;;;24.50;12.63;;;3.80;99.90;;;;;;5035318;28;20497;-84
2021/11/05 03:18:18;;;;;;;33.85;13.10;;;3.90;99.90;;;;;;5014320;28;20383;-84
2021/11/05 03:20:46;;;;;;;31.30;14.60;;;3.90;99.90;;;;;;5027784;28;20040;-84
2021/11/05 03:23:14;;;;;;;38.92;14.23;;;3.90;99.90;;;;;;5018839;28;20027;-84
2021/11/05 03:25:40;;;;;;;31.92;16.00;;;3.90;99.90;;;;;;5030818;28;20580;-84
2021/11/05 03:28:05;;;;;;;33.20;15.35;;;3.90;99.90;;;;;;5010967;28;20026;-84
2021/11/05 03:30:32;;;;;;;35.60;16.20;;;3.90;99.90;;;;;;5015258;28;20041;-84
2021/11/05 03:32:59;;;;;;;32.17;15.95;;;3.90;99.90;;;;;;5009639;28;20057;-84
2021/11/05 03:35:24;;;;;;;34.28;17.25;;;3.90;99.90;;;;;;5011867;28;20112;-84
2021/11/05 03:37:50;;;;;;;33.38;16.98;;;3.90;99.90;;;;;;5030087;28;20069;-84
2021/11/05 03:40:17;;;;;;;32.35;16.55;;;3.80;99.90;;;;;;5020779;28;20034;-83
2021/11/05 03:42:48;;;;;;;34.00;18.52;;;3.80;99.90;;;;;;5010765;28;20033;-84
2021/11/05 03:45:15;;;;;;;45.47;19.02;;;3.90;99.90;;;;;;5013955;28;20497;-83
2021/11/05 03:47:41;;;;;;;33.40;17.83;;;3.90;99.90;;;;;;5014935;28;20032;-84
2021/11/05 03:50:06;;;;;;;44.55;19.17;;;3.90;99.90;;;;;;5028570;28;20037;-83
2021/11/05 03:52:32;;;;;;;37.70;18.08;;;3.90;99.90;;;;;;5019629;28;20667;-84
2021/11/05 03:54:58;;;;;;;42.80;17.83;;;3.90;99.90;;;;;;5024370;28;20052;-84
2021/11/05 03:57:23;;;;;;;42.15;19.33;;;3.90;99.90;;;;;;5014343;28;20045;-84
2021/11/05 03:59:49;;;;;;;30.92;16.67;;;3.90;99.90;;;;;;5023686;28;20033;-84
2021/11/05 04:02:14;;;;;;;33.35;18.08;;;3.80;99.90;;;;;;5004926;28;20026;-84
2021/11/05 04:04:40;;;;;;;43.40;19.05;;;3.80;99.90;;;;;;5016058;28;20060;-84
2021/11/05 04:07:05;;;;;;;43.10;19.45;;;3.80;99.90;;;;;;5014303;28;20525;-84
2021/11/05 04:09:31;;;;;;;39.90;18.50;;;3.80;99.90;;;;;;5013107;28;20042;-83
2021/11/05 04:11:56;;;;;;;41.35;18.75;;;3.70;99.90;;;;;;5013375;28;20496;-83
2021/11/05 04:14:22;;;;;;;34.47;16.50;;;3.70;99.90;;;;;;5016246;28;20057;-84
2021/11/05 04:16:47;;;;;;;60.90;14.30;;;3.70;99.90;;;;;;5013755;28;20112;-85
2021/11/05 04:19:13;;;;;;;25.25;15.43;;;3.70;99.90;;;;;;5013260;28;20030;-84
2021/11/05 04:21:39;;;;;;;26.73;15.27;;;3.60;99.90;;;;;;5015590;28;20030;-83
2021/11/05 04:24:06;;;;;;;30.33;15.40;;;3.60;99.90;;;;;;5001190;28;20053;-84
2021/11/05 04:26:33;;;;;;;33.08;16.42;;;3.50;99.90;;;;;;5014155;28;20041;-85
2021/11/05 04:28:59;;;;;;;31.65;16.38;;;3.50;99.90;;;;;;5014259;28;20022;-84
2021/11/05 04:31:25;;;;;;;23.77;15.02;;;3.60;99.90;;;;;;5018150;28;20175;-84
2021/11/05 04:33:50;;;;;;;34.05;18.00;;;3.50;99.90;;;;;;5013555;28;20041;-84
2021/11/05 04:36:18;;;;;;;32.25;18.15;;;3.50;99.90;;;;;;5016164;28;20026;-84
2021/11/05 04:38:43;;;;;;;36.20;17.48;;;3.50;99.90;;;;;;5013273;28;20025;-84
2021/11/05 04:41:09;;;;;;;43.15;20.60;;;3.50;99.90;;;;;;5013604;28;20479;-84
2021/11/05 04:43:34;;;;;;;28.83;17.80;;;3.50;99.90;;;;;;5024620;28;20470;-84
2021/11/05 04:46:00;;;;;;;34.40;17.35;;;3.60;99.90;;;;;;5016983;28;20120;-84
2021/11/05 04:48:26;;;;;;;57.08;21.27;;;3.60;99.90;;;;;;5010430;28;20029;-84
2021/11/05 04:50:51;;;;;;;26.75;16.48;;;3.60;99.90;;;;;;5014665;28;20026;-84
2021/11/05 04:53:17;;;;;;;34.58;17.70;;;3.60;99.90;;;;;;5033893;28;20494;-84
2021/11/05 04:55:42;;;;;;;38.70;17.25;;;3.50;99.90;;;;;;5012318;28;20032;-84
2021/11/05 04:58:08;;;;;;;31.13;16.60;;;3.50;99.90;;;;;;4996884;28;20030;-84
2021/11/05 05:00:34;;;;;;;25.27;16.50;;;3.50;99.90;;;;;;5023356;28;20038;-84
2021/11/05 05:02:59;;;;;;;32.55;16.48;;;3.50;99.90;;;;;;5012518;28;20040;-84
2021/11/05 05:05:27;;;;;;;33.97;16.08;;;3.40;99.90;;;;;;5020738;28;20037;-84
2021/11/05 05:07:53;;;;;;;29.80;15.45;;;3.40;99.90;;;;;;5025783;28;20026;-83
2021/11/05 05:10:19;;;;;;;29.25;15.55;;;3.40;99.90;;;;;;5013977;28;20528;-84
2021/11/05 05:12:45;;;;;;;32.00;16.52;;;3.40;99.90;;;;;;5020088;28;20032;-83
2021/11/05 05:15:13;;;;;;;92.93;17.95;;;3.30;99.90;;;;;;5014709;28;20433;-84
2021/11/05 05:17:39;;;;;;;95.43;20.48;;;3.30;99.90;;;;;;5011047;28;20033;-84
2021/11/05 05:20:10;;;;;;;321.50;30.02;;;3.30;99.90;;;;;;5029941;28;20505;-84
2021/11/05 05:22:36;;;;;;;82.32;19.48;;;3.30;99.90;;;;;;5022987;28;20033;-84
2021/11/05 05:25:04;;;;;;;85.30;20.35;;;3.30;99.90;;;;;;5011336;28;20030;-83
2021/11/05 05:27:29;;;;;;;121.25;21.77;;;3.30;99.90;;;;;;5012348;28;20121;-83
2021/11/05 05:29:56;;;;;;;71.18;21.73;;;3.30;99.90;;;;;;5017601;28;20057;-84
2021/11/05 05:32:22;;;;;;;32.38;18.63;;;3.30;99.90;;;;;;5019822;28;20053;-84
2021/11/05 05:34:47;;;;;;;39.92;19.92;;;3.40;99.90;;;;;;5019610;28;20037;-84
2021/11/05 05:37:13;;;;;;;41.65;19.55;;;3.40;99.90;;;;;;5012833;28;20025;-84
2021/11/05 05:39:39;;;;;;;36.28;16.90;;;3.40;99.90;;;;;;5014119;28;20033;-83
2021/11/05 05:42:04;;;;;;;43.67;18.05;;;3.40;99.90;;;;;;5013109;28;20393;-84
2021/11/05 05:44:30;;;;;;;36.50;20.00;;;3.40;99.90;;;;;;5010921;28;20053;-84
2021/11/05 05:46:56;;;;;;;37.17;19.80;;;3.40;99.90;;;;;;5021913;28;20026;-84
2021/11/05 05:49:22;;;;;;;45.67;19.17;;;3.50;99.90;;;;;;5013604;28;20079;-84
2021/11/05 05:51:47;;;;;;;64.88;22.00;;;3.50;99.90;;;;;;5019207;28;20113;-84
2021/11/05 05:54:13;;;;;;;55.03;19.80;;;3.50;99.90;;;;;;5012600;28;20049;-85
2021/11/05 05:56:38;;;;;;;128.25;28.02;;;3.50;99.90;;;;;;5011749;28;20121;-84
2021/11/05 05:59:04;;;;;;;47.90;21.90;;;3.50;99.90;;;;;;5010875;28;20026;-84
2021/11/05 06:01:30;;;;;;;45.88;19.60;;;3.50;99.90;;;;;;5026089;28;20037;-84
2021/11/05 06:03:59;;;;;;;47.15;18.98;;;3.50;99.90;;;;;;4995032;28;20058;-84
2021/11/05 06:06:26;;;;;;;45.47;20.33;;;3.50;99.90;;;;;;5012367;28;20486;-84
2021/11/05 06:08:51;;;;;;;39.05;18.65;;;3.40;99.90;;;;;;5011768;28;20033;-84
2021/11/05 06:11:19;;;;;;;39.45;18.00;;;3.40;99.90;;;;;;5012806;28;20038;-82
2021/11/05 06:13:45;;;;;;;64.30;20.20;;;3.40;99.90;;;;;;5016541;28;20029;-84
2021/11/05 06:16:26;;;;;;;45.53;20.35;;;3.40;99.90;;;;;;5018291;28;20025;-85
2021/11/05 06:18:52;;;;;;;45.05;20.75;;;3.40;99.90;;;;;;5013049;28;20022;-84
2021/11/05 06:21:18;;;;;;;44.80;20.20;;;3.30;99.90;;;;;;5021195;28;20112;-84
2021/11/05 06:23:43;;;;;;;79.70;25.95;;;3.40;99.90;;;;;;5020992;28;20060;-84
2021/11/05 06:26:09;;;;;;;51.05;24.05;;;3.40;99.90;;;;;;5034113;28;20029;-84
2021/11/05 06:28:35;;;;;;;48.25;24.08;;;3.40;99.90;;;;;;5022390;28;20072;-84
2021/11/05 06:31:00;;;;;;;55.72;25.00;;;3.40;99.90;;;;;;5010901;28;20025;-84
2021/11/05 06:33:26;;;;;;;56.67;25.60;;;3.40;99.90;;;;;;5017327;28;20018;-84
2021/11/05 06:35:51;;;;;;;57.90;26.05;;;3.40;99.90;;;;;;5015230;28;20033;-84
2021/11/05 06:38:17;;;;;;;45.78;23.45;;;3.40;99.90;;;;;;5000073;28;20022;-85
2021/11/05 06:40:43;;;;;;;41.33;23.48;;;3.40;99.90;;;;;;5018853;28;20041;-85
2021/11/05 06:43:09;;;;;;;655.05;63.63;;;3.40;99.90;;;;;;5028375;28;20091;-85
2021/11/05 06:45:34;;;;;;;52.00;25.65;;;3.40;99.90;;;;;;5014801;28;20124;-85
2021/11/05 06:48:00;;;;;;;55.13;28.08;;;3.40;99.90;;;;;;5017350;28;20082;-85
2021/11/05 06:50:25;;;;;;;67.72;27.55;;;3.50;99.90;;;;;;5024021;28;20025;-85
2021/11/05 06:52:51;;;;;;;42.45;25.17;;;3.50;99.90;;;;;;5022410;28;20038;-85
2021/11/05 06:55:17;;;;;;;40.92;23.20;;;3.50;99.90;;;;;;5040443;28;20068;-84
2021/11/05 06:57:42;;;;;;;51.33;24.85;;;3.50;99.90;;;;;;5037943;28;20018;-84
2021/11/05 07:00:11;;;;;;;47.17;24.30;;;3.60;99.90;;;;;;5036360;28;20052;-84
2021/11/05 07:02:41;;;;;;;50.30;25.63;;;3.60;99.90;;;;;;5036712;28;20017;-84
2021/11/05 07:05:11;;;;;;;47.45;25.30;;;3.60;99.90;;;;;;5043021;28;20071;-85
2021/11/05 07:07:36;;;;;;;39.08;21.85;;;3.60;99.90;;;;;;5045310;28;20029;-85
2021/11/05 07:10:04;;;;;;;46.63;25.55;;;3.70;99.90;;;;;;5012204;28;20036;-85
2021/11/05 07:12:29;;;;;;;48.55;25.90;;;3.80;99.90;;;;;;5010250;28;20491;-85
2021/11/05 07:14:55;;;;;;;50.38;27.58;;;3.90;99.90;;;;;;5018872;28;20029;-85
2021/11/05 07:17:20;;;;;;;42.75;25.13;;;4.00;99.90;;;;;;5043337;28;20032;-82
2021/11/05 07:19:46;;;;;;;40.85;24.73;;;4.20;99.90;;;;;;5026036;28;20040;-85
2021/11/05 07:22:11;;;;;;;40.25;23.50;;;4.30;99.90;;;;;;5023604;28;20033;-85
2021/11/05 07:24:38;;;;;;;45.53;24.77;;;4.40;99.90;;;;;;5015000;28;20049;-85
2021/11/05 07:27:04;;;;;;;44.17;23.30;;;4.40;99.90;;;;;;5015967;28;20033;-85
2021/11/05 07:29:31;;;;;;;50.95;25.10;;;4.40;99.90;;;;;;5030301;28;20028;-85
2021/11/05 07:32:01;;;;;;;55.78;25.80;;;4.40;99.90;;;;;;5026753;28;20052;-85
2021/11/05 07:34:30;;;;;;;52.55;24.00;;;4.40;99.90;;;;;;5022078;28;20033;-84
2021/11/05 07:36:56;;;;;;;50.05;22.48;;;4.40;99.90;;;;;;5023436;28;20017;-85
2021/11/05 07:39:22;;;;;;;41.88;20.95;;;4.40;99.90;;;;;;5018283;28;20025;-85
2021/11/05 07:41:47;;;;;;;38.22;21.17;;;4.40;99.90;;;;;;5018029;28;20036;-85
2021/11/05 07:44:13;;;;;;;40.13;21.08;;;4.40;99.90;;;;;;5018980;28;20474;-85
2021/11/05 07:46:41;;;;;;;44.33;22.05;;;4.40;99.90;;;;;;5017059;28;20021;-85
2021/11/05 07:49:07;;;;;;;38.50;20.60;;;4.50;99.90;;;;;;5030630;28;20017;-85
2021/11/05 07:51:32;;;;;;;43.78;22.92;;;4.50;99.90;;;;;;5023707;28;20080;-83
2021/11/05 07:53:58;;;;;;;39.20;21.65;;;4.50;99.90;;;;;;5015946;28;20076;-85
2021/11/05 07:56:23;;;;;;;43.13;23.55;;;4.60;99.90;;;;;;5018155;28;20034;-85
2021/11/05 07:58:49;;;;;;;42.20;23.58;;;4.60;99.90;;;;;;5028118;28;20519;-85
2021/11/05 08:01:14;;;;;;;47.33;25.25;;;4.70;99.90;;;;;;5021599;28;20515;-85
2021/11/05 08:03:41;;;;;;;48.33;26.58;;;4.80;99.90;;;;;;5023038;28;20026;-85
2021/11/05 08:06:07;;;;;;;58.28;28.35;;;4.90;99.90;;;;;;5024742;28;20033;-85
2021/11/05 08:08:33;;;;;;;44.55;26.30;;;5.00;99.90;;;;;;5023297;28;20420;-85
2021/11/05 08:10:58;;;;;;;42.85;26.40;;;5.10;99.90;;;;;;5023626;28;20112;-85
2021/11/05 08:13:24;;;;;;;46.25;27.45;;;5.20;99.90;;;;;;5023810;28;20033;-85
2021/11/05 08:15:49;;;;;;;44.10;26.13;;;5.30;99.90;;;;;;5029941;28;20052;-85
2021/11/05 08:18:15;;;;;;;54.00;30.00;;;5.40;99.90;;;;;;5022288;28;20492;-85
2021/11/05 08:20:40;;;;;;;49.47;28.42;;;5.50;99.90;;;;;;5023199;28;20442;-84
2021/11/05 08:23:08;;;;;;;52.08;29.48;;;5.60;99.90;;;;;;5028918;28;20025;-84
2021/11/05 08:25:34;;;;;;;53.03;28.02;;;5.70;99.90;;;;;;5028436;28;20684;-85
2021/11/05 08:27:59;;;;;;;47.88;28.60;;;5.90;99.90;;;;;;5016113;28;20017;-85
2021/11/05 08:30:25;;;;;;;46.85;27.58;;;6.00;99.90;;;;;;5019430;28;20021;-85
2021/11/05 08:32:53;;;;;;;45.33;27.05;;;6.10;99.90;;;;;;5014839;28;20389;-85
2021/11/05 08:35:20;;;;;;;44.63;27.00;;;6.10;99.90;;;;;;5040114;28;20033;-85
2021/11/05 08:37:46;;;;;;;46.65;29.33;;;6.20;99.90;;;;;;5023909;28;20021;-85
2021/11/05 08:40:11;;;;;;;47.58;29.10;;;6.40;99.90;;;;;;5045584;28;20029;-85
2021/11/05 08:42:38;;;;;;;48.10;30.25;;;6.40;99.90;;;;;;5029197;28;20547;-85
2021/11/05 08:45:07;;;;;;;46.58;30.48;;;6.60;99.90;;;;;;5038402;28;20090;-85
2021/11/05 08:47:36;;;;;;;47.22;28.65;;;6.70;99.90;;;;;;5025021;28;20040;-85
2021/11/05 08:50:04;;;;;;;48.85;29.73;;;6.80;99.90;;;;;;5037613;28;20032;-85
2021/11/05 08:52:30;;;;;;;56.17;32.65;;;6.90;99.90;;;;;;5040959;28;20038;-84
2021/11/05 08:54:58;;;;;;;49.10;32.30;;;7.00;99.90;;;;;;5017630;28;20099;-84
2021/11/05 08:57:23;;;;;;;47.22;30.30;;;7.10;99.90;;;;;;5018757;28;20060;-84
2021/11/05 08:59:49;;;;;;;49.22;30.33;;;7.20;99.90;;;;;;5021686;28;20057;-85
2021/11/05 09:02:14;;;;;;;46.63;30.00;;;7.30;99.90;;;;;;5028362;28;20017;-84
2021/11/05 09:04:40;;;;;;;47.08;29.15;;;7.40;99.90;;;;;;5048415;28;20491;-85
2021/11/05 09:07:05;;;;;;;46.72;30.77;;;7.50;99.90;;;;;;5039325;28;20024;-85
2021/11/05 09:09:31;;;;;;;37.15;26.70;;;7.50;99.90;;;;;;5022726;28;20029;-85
2021/11/05 09:11:57;;;;;;;39.45;28.63;;;7.70;99.90;;;;;;5035477;28;20508;-84
2021/11/05 09:14:23;;;;;;;37.45;26.70;;;7.80;99.90;;;;;;5046941;28;20029;-85
2021/11/05 09:16:48;;;;;;;37.40;26.77;;;7.80;99.90;;;;;;5027879;28;20423;-84
2021/11/05 09:19:14;;;;;;;32.60;25.13;;;7.90;99.90;;;;;;5024818;28;20497;-84
2021/11/05 09:21:39;;;;;;;36.25;26.55;;;8.00;99.90;;;;;;5019862;28;20491;-84
2021/11/05 09:24:05;;;;;;;38.30;26.05;;;8.10;99.90;;;;;;5036773;28;20029;-84
2021/11/05 09:26:31;;;;;;;34.17;24.73;;;8.20;99.90;;;;;;5045234;28;20029;-85
2021/11/05 09:28:57;;;;;;;32.83;23.20;;;8.30;99.90;;;;;;5030475;28;20025;-86
2021/11/05 09:31:23;;;;;;;34.10;24.23;;;8.40;99.90;;;;;;5037565;28;20044;-85
2021/11/05 09:33:50;;;;;;;31.92;22.38;;;8.40;99.90;;;;;;5018256;28;21350;-85
2021/11/05 09:36:17;;;;;;;29.88;21.02;;;8.50;99.90;;;;;;5021464;28;20021;-85
2021/11/05 09:38:44;;;;;;;26.30;20.08;;;8.60;99.90;;;;;;5016938;28;20037;-85
2021/11/05 09:41:10;;;;;;;34.30;21.15;;;8.70;99.90;;;;;;5038802;28;20032;-85
2021/11/05 09:43:38;;;;;;;23.65;18.30;;;8.70;99.90;;;;;;5035539;28;20089;-85
2021/11/05 09:46:04;;;;;;;23.92;16.67;;;8.80;99.90;;;;;;5038196;28;20078;-84
2021/11/05 09:48:31;;;;;;;22.20;15.88;;;8.90;99.90;;;;;;5029225;28;20026;-85
2021/11/05 09:50:57;;;;;;;24.98;16.02;;;9.00;99.90;;;;;;5017772;28;20028;-84
2021/11/05 09:53:26;;;;;;;23.33;14.50;;;9.10;99.90;;;;;;5014082;28;20394;-84
2021/11/05 09:55:52;;;;;;;19.45;15.57;;;9.30;99.90;;;;;;5017989;28;20170;-86
2021/11/05 09:58:18;;;;;;;23.92;16.38;;;9.40;99.90;;;;;;5018024;28;20025;-85
2021/11/05 10:00:44;;;;;;;21.77;14.38;;;9.60;99.90;;;;;;5025198;28;20402;-85
2021/11/05 10:03:10;;;;;;;18.80;13.13;;;9.70;99.90;;;;;;5041189;28;20359;-85
2021/11/05 10:05:36;;;;;;;18.63;12.57;;;9.90;99.90;;;;;;5020168;28;20086;-85
2021/11/05 10:08:03;;;;;;;16.25;11.35;;;9.90;99.90;;;;;;5045266;28;20500;-86
2021/11/05 10:10:38;;;;;;;19.00;10.93;;;10.00;99.90;;;;;;5022766;28;20037;-86
2021/11/05 10:13:07;;;;;;;16.58;11.00;;;10.00;99.90;;;;;;5020957;28;20128;-85
2021/11/05 10:15:42;;;;;;;14.85;11.55;;;10.00;99.90;;;;;;5032197;28;20032;-86
2021/11/05 10:18:14;;;;;;;13.65;10.07;;;10.00;99.90;;;;;;5020290;28;20423;-85
2021/11/05 10:20:40;;;;;;;19.75;13.05;;;10.00;99.90;;;;;;5049266;28;20029;-86
2021/11/05 10:23:06;;;;;;;14.38;11.02;;;10.10;99.90;;;;;;5017314;28;20116;-85
2021/11/05 10:25:38;;;;;;;19.58;10.35;;;10.20;99.90;;;;;;5037053;28;20048;-85
2021/11/05 10:28:19;;;;;;;18.13;10.18;;;10.30;99.90;;;;;;5039318;28;20067;-85
2021/11/05 10:30:44;;;;;;;11.65;9.52;;;10.30;99.90;;;;;;5023918;28;20547;-85
2021/11/05 10:33:12;;;;;;;14.10;9.52;;;10.40;99.90;;;;;;5020565;28;20068;-85
2021/11/05 10:35:39;;;;;;;10.82;7.32;;;10.50;99.90;;;;;;5045764;28;20448;-85
2021/11/05 10:38:07;;;;;;;14.57;7.55;;;10.50;99.90;;;;;;5037480;28;20025;-85
2021/11/05 10:40:49;;;;;;;13.73;6.93;;;10.60;99.90;;;;;;5042207;28;20029;-86
2021/11/05 10:43:35;;;;;;;12.10;5.88;;;10.60;99.90;;;;;;5024182;28;20037;-86
2021/11/05 10:46:02;;;;;;;11.38;6.18;;;10.60;99.90;;;;;;5028774;28;20044;-85
2021/11/05 10:48:30;;;;;;;11.52;6.65;;;10.60;99.90;;;;;;5038183;28;20371;-85
2021/11/05 10:50:59;;;;;;;14.82;6.13;;;10.80;99.90;;;;;;5024228;28;20477;-85
2021/11/05 10:53:31;;;;;;;9.93;5.55;;;11.00;99.90;;;;;;5019081;28;20394;-85
2021/11/05 10:56:08;;;;;;;10.73;5.10;;;11.20;99.90;;;;;;5042169;28;20539;-85
2021/11/05 10:58:37;;;;;;;13.35;5.00;;;11.30;99.90;;;;;;5038474;28;20040;-85
2021/11/05 11:01:12;;;;;;;9.43;4.60;;;11.30;99.90;;;;;;5049457;28;20033;-85
2021/11/05 11:03:43;;;;;;;9.85;4.35;;;11.40;99.90;;;;;;5039356;28;20017;-86
2021/11/05 11:06:11;;;;;;;7.38;4.25;;;11.60;99.90;;;;;;5019459;28;20084;-86
2021/11/05 11:08:40;;;;;;;12.32;5.07;;;11.80;99.90;;;;;;5037526;28;20067;-86
2021/11/05 11:11:15;;;;;;;10.40;3.95;;;11.90;99.90;;;;;;5017332;28;20029;-86
2021/11/05 11:13:41;;;;;;;12.25;3.97;;;12.00;99.90;;;;;;5018828;28;20072;-84
2021/11/05 11:16:10;;;;;;;10.40;3.28;;;12.00;99.90;;;;;;5027799;28;20485;-84
2021/11/05 11:18:51;;;;;;;7.20;2.83;;;11.90;99.90;;;;;;5050238;28;20113;-85
2021/11/05 11:21:18;;;;;;;11.70;2.30;;;11.80;99.90;;;;;;5017646;28;20103;-84
2021/11/05 11:23:44;;;;;;;11.40;2.25;;;11.70;99.90;;;;;;5034733;28;20027;-85
2021/11/05 11:26:11;;;;;;;8.77;2.35;;;11.70;99.90;;;;;;5018271;28;20021;-85
2021/11/05 11:28:37;;;;;;;6.57;2.13;;;11.80;99.90;;;;;;5035551;28;20035;-85
2021/11/05 11:31:03;;;;;;;7.75;2.15;;;11.90;99.90;;;;;;5023032;28;20026;-85
2021/11/05 11:33:30;;;;;;;7.90;2.53;;;12.00;99.90;;;;;;5019978;28;20022;-85
2021/11/05 11:35:56;;;;;;;8.20;1.58;;;12.10;99.90;;;;;;5019260;28;20458;-85
2021/11/05 11:38:21;;;;;;;8.88;1.35;;;12.10;99.90;;;;;;5018057;28;20044;-85
2021/11/05 11:40:50;;;;;;;12.70;1.50;;;12.00;99.90;;;;;;5020275;28;20481;-85
2021/11/05 11:43:17;;;;;;;5.85;1.00;;;12.00;99.90;;;;;;5038871;28;20018;-87
2021/11/05 11:45:51;;;;;;;7.47;1.00;;;11.90;99.90;;;;;;5017504;28;20075;-85
2021/11/05 11:48:42;;;;;;;6.70;0.80;;;11.80;99.90;;;;;;5035770;28;20036;-85
2021/11/05 11:51:20;;;;;;;7.90;1.08;;;11.70;99.90;;;;;;5017603;28;20037;-84
2021/11/05 11:53:46;;;;;;;5.80;0.70;;;11.60;99.90;;;;;;5013539;28;20062;-86
2021/11/05 11:56:30;;;;;;;7.22;0.60;;;11.60;99.90;;;;;;5015877;28;20037;-86
2021/11/05 11:59:01;;;;;;;8.23;0.60;;;11.60;99.90;;;;;;5039907;28;20021;-86
2021/11/05 12:01:30;;;;;;;4.20;0.60;;;11.70;99.90;;;;;;5041022;28;20048;-85
2021/11/05 12:04:03;;;;;;;9.15;0.57;;;11.90;99.90;;;;;;5024879;28;20488;-85
2021/11/05 12:07:01;;;;;;;6.15;0.50;;;12.10;99.90;;;;;;5011645;28;20051;-86
2021/11/05 12:09:31;;;;;;;3.05;0.73;;;12.30;99.90;;;;;;5022855;28;20103;-85
2021/11/05 12:12:22;;;;;;;8.88;0.85;;;12.40;99.90;;;;;;5037061;28;20112;-86
2021/11/05 12:15:00;;;;;;;6.55;0.75;;;12.60;99.90;;;;;;5042326;28;20027;-86
2021/11/05 12:17:45;;;;;;;10.18;1.15;;;12.60;99.90;;;;;;5016833;28;20029;-86
2021/11/05 12:20:29;;;;;;;4.93;0.60;;;12.60;99.90;;;;;;5015518;28;20038;-85
2021/11/05 12:23:13;;;;;;;8.18;0.80;;;12.70;99.90;;;;;;5015950;28;20045;-85
2021/11/05 12:25:46;;;;;;;7.25;0.80;;;12.60;99.90;;;;;;5029439;28;20055;-85
2021/11/05 12:28:22;;;;;;;10.20;0.95;;;12.60;99.90;;;;;;5043300;28;20030;-86
2021/11/05 12:30:51;;;;;;;7.00;0.70;;;12.50;99.90;;;;;;5016306;28;20022;-86
2021/11/05 12:33:30;;;;;;;4.13;0.50;;;12.50;99.90;;;;;;5026550;28;20072;-85
2021/11/05 12:36:00;;;;;;;2.63;0.68;;;12.60;99.90;;;;;;5019319;28;20020;-86
2021/11/05 12:38:27;;;;;;;6.25;0.60;;;12.50;99.90;;;;;;5025865;28;20030;-85